createdAt,value
2018-08-19T05:48:49.295Z,892
2018-08-19T05:49:09.445Z,904
2018-08-19T05:49:29.581Z,916
2018-08-19T05:49:49.784Z,924
2018-08-19T05:50:09.996Z,928
2018-08-19T05:50:30.185Z,932
2018-08-19T05:50:50.381Z,928
2018-08-19T05:51:10.534Z,936
2018-08-19T05:51:30.654Z,936
2018-08-19T05:51:50.903Z,940
2018-08-19T05:52:11.091Z,948
2018-08-19T05:52:31.242Z,956
2018-08-19T05:52:51.421Z,964
2018-08-19T05:53:11.608Z,976
2018-08-19T05:53:31.788Z,988
2018-08-19T05:53:52.028Z,996
2018-08-19T05:54:12.178Z,1000
2018-08-19T05:54:33.094Z,1008
2018-08-19T05:54:53.241Z,1020
2018-08-19T05:55:13.472Z,1024
2018-08-19T05:55:34.573Z,1036
2018-08-19T05:55:54.704Z,1040
2018-08-19T05:56:14.934Z,1048
2018-08-19T05:56:35.136Z,1052
2018-08-19T05:56:55.377Z,1048
2018-08-19T05:57:15.600Z,1044
2018-08-19T05:57:35.781Z,1040
2018-08-19T05:57:56.001Z,1040
2018-08-19T05:58:16.254Z,1036
2018-08-19T05:58:36.461Z,1032
2018-08-19T05:58:56.690Z,1028
2018-08-19T05:59:16.954Z,1024
2018-08-19T05:59:37.167Z,1024
2018-08-19T05:59:57.399Z,1024
2018-08-19T06:00:17.616Z,1020
2018-08-19T06:00:37.802Z,1020
2018-08-19T06:00:58.042Z,1020
2018-08-19T06:01:18.336Z,1020
2018-08-19T06:01:38.413Z,1024
2018-08-19T06:01:58.656Z,1016
2018-08-19T06:02:18.837Z,1016
2018-08-19T06:02:39.031Z,1016
2018-08-19T06:02:59.268Z,1012
2018-08-19T06:03:19.507Z,1012
2018-08-19T06:03:39.756Z,1012
2018-08-19T06:04:00.032Z,1012
2018-08-19T06:04:20.273Z,1020
2018-08-19T06:04:40.439Z,1024
2018-08-19T06:05:00.695Z,1032
2018-08-19T06:05:20.853Z,1036
2018-08-19T06:05:41.043Z,1044
2018-08-19T06:06:01.287Z,1056
2018-08-19T06:06:21.501Z,1060
2018-08-19T06:06:41.683Z,1064
2018-08-19T06:07:01.909Z,1068
2018-08-19T06:07:22.059Z,1072
2018-08-19T06:07:42.627Z,1072
2018-08-19T06:08:02.706Z,1072
2018-08-19T06:08:22.930Z,1068
2018-08-19T06:08:43.180Z,1072
2018-08-19T06:09:03.352Z,1068
2018-08-19T06:09:23.549Z,1068
2018-08-19T06:09:43.799Z,1064
2018-08-19T06:10:03.988Z,1064
2018-08-19T06:10:24.180Z,1064
2018-08-19T06:10:44.382Z,1064
2018-08-19T06:11:04.620Z,1068
2018-08-19T06:11:24.863Z,1064
2018-08-19T06:11:45.095Z,1064
2018-08-19T06:12:05.314Z,1060
2018-08-19T06:12:25.499Z,1064
2018-08-19T06:12:45.697Z,1064
2018-08-19T06:13:05.866Z,1064
2018-08-19T06:13:26.048Z,1068
2018-08-19T06:13:46.397Z,1076
2018-08-19T06:14:06.666Z,1080
2018-08-19T06:14:26.854Z,1088
2018-08-19T06:14:47.062Z,1088
2018-08-19T06:15:07.675Z,1096
2018-08-19T06:15:28.847Z,1096
2018-08-19T06:15:49.866Z,1104
2018-08-19T06:16:10.739Z,1108
2018-08-19T06:16:31.657Z,1116
2018-08-19T06:16:52.129Z,1120
2018-08-19T06:17:12.672Z,1128
2018-08-19T06:17:32.861Z,1132
2018-08-19T06:17:53.078Z,1132
2018-08-19T06:18:13.277Z,1136
2018-08-19T06:18:33.504Z,1144
2018-08-19T06:18:53.732Z,1148
2018-08-19T06:19:13.953Z,1148
2018-08-19T06:19:34.121Z,1152
2018-08-19T06:19:54.402Z,1160
2018-08-19T06:20:14.607Z,1164
2018-08-19T06:20:35.032Z,1172
2018-08-19T06:20:55.524Z,1172
2018-08-19T06:21:16.706Z,1172
2018-08-19T06:21:37.572Z,1168
2018-08-19T06:21:58.123Z,1172
2018-08-19T06:22:18.325Z,1172
2018-08-19T06:22:38.526Z,1172
2018-08-19T06:22:58.733Z,1176
2018-08-19T06:23:18.945Z,1176
2018-08-19T06:23:39.142Z,1184
2018-08-19T06:23:59.318Z,1188
2018-08-19T06:24:19.523Z,1196
2018-08-19T06:24:39.741Z,1204
2018-08-19T06:24:59.952Z,1204
2018-08-19T06:25:20.234Z,1208
2018-08-19T06:25:40.548Z,1216
2018-08-19T06:26:00.769Z,1220
2018-08-19T06:26:21.020Z,1224
2018-08-19T06:26:41.284Z,1232
2018-08-19T06:27:01.465Z,1248
2018-08-19T06:27:21.705Z,1268
2018-08-19T06:27:41.840Z,1292
2018-08-19T06:28:02.011Z,1316
2018-08-19T06:28:22.300Z,1332
2018-08-19T06:28:42.518Z,1352
2018-08-19T06:29:02.804Z,1360
2018-08-19T06:29:23.119Z,1360
2018-08-19T06:29:43.301Z,1352
2018-08-19T06:30:03.445Z,1344
2018-08-19T06:30:23.697Z,1332
2018-08-19T06:30:43.902Z,1320
2018-08-19T06:31:04.133Z,1312
2018-08-19T06:31:24.342Z,1300
2018-08-19T06:31:45.704Z,1292
2018-08-19T06:32:05.964Z,1280
2018-08-19T06:32:26.228Z,1268
2018-08-19T06:32:46.425Z,1264
2018-08-19T06:33:06.595Z,1252
2018-08-19T06:33:26.794Z,1244
2018-08-19T06:33:47.081Z,1240
2018-08-19T06:34:07.309Z,1236
2018-08-19T06:34:27.626Z,1236
2018-08-19T06:34:47.881Z,1232
2018-08-19T06:35:08.150Z,1232
2018-08-19T06:35:28.289Z,1236
2018-08-19T06:35:48.537Z,1248
2018-08-19T06:36:08.919Z,1260
2018-08-19T06:36:29.159Z,1264
2018-08-19T06:36:49.354Z,1288
2018-08-19T06:37:09.625Z,1272
2018-08-19T06:37:29.811Z,1292
2018-08-19T06:37:50.017Z,1292
2018-08-19T06:38:10.241Z,1288
2018-08-19T06:38:30.468Z,1340
2018-08-19T06:38:50.757Z,1360
2018-08-19T06:39:11.083Z,1352
2018-08-19T06:39:31.230Z,1360
2018-08-19T06:39:51.415Z,1404
2018-08-19T06:40:11.693Z,1444
2018-08-19T06:40:31.903Z,1488
2018-08-19T06:40:52.067Z,1476
2018-08-19T06:41:12.370Z,1432
2018-08-19T06:41:32.578Z,1408
2018-08-19T06:41:52.798Z,1396
2018-08-19T06:42:13.005Z,1372
2018-08-19T06:42:33.212Z,1348
2018-08-19T06:42:53.460Z,1380
2018-08-19T06:43:13.859Z,1420
2018-08-19T06:43:34.186Z,1436
2018-08-19T06:43:54.381Z,1464
2018-08-19T06:44:14.605Z,1492
2018-08-19T06:44:34.794Z,1520
2018-08-19T06:44:55.031Z,1532
2018-08-19T06:45:15.268Z,1520
2018-08-19T06:45:35.456Z,1512
2018-08-19T06:45:55.632Z,1508
2018-08-19T06:46:15.839Z,1484
2018-08-19T06:46:36.022Z,1464
2018-08-19T06:46:56.248Z,1444
2018-08-19T06:47:16.436Z,1428
2018-08-19T06:47:36.598Z,1440
2018-08-19T06:47:56.873Z,1488
2018-08-19T06:48:17.074Z,1488
2018-08-19T06:48:37.317Z,1436
2018-08-19T06:48:57.529Z,1444
2018-08-19T06:49:17.714Z,1404
2018-08-19T06:49:38.250Z,1400
2018-08-19T06:49:58.463Z,1424
2018-08-19T06:50:18.705Z,1444
2018-08-19T06:50:38.835Z,1432
2018-08-19T06:50:59.087Z,1420
2018-08-19T06:51:19.450Z,1404
2018-08-19T06:51:39.533Z,1400
2018-08-19T06:51:59.710Z,1424
2018-08-19T06:52:19.965Z,1456
2018-08-19T06:52:40.110Z,1416
2018-08-19T06:53:00.296Z,1336
2018-08-19T06:53:20.471Z,1292
2018-08-19T06:53:40.665Z,1276
2018-08-19T06:54:00.820Z,1292
2018-08-19T06:54:21.013Z,1312
2018-08-19T06:54:41.246Z,1344
2018-08-19T06:55:01.430Z,1392
2018-08-19T06:55:21.615Z,1416
2018-08-19T06:55:41.796Z,1492
2018-08-19T06:56:02.014Z,1500
2018-08-19T06:56:22.251Z,1504
2018-08-19T06:56:42.442Z,1452
2018-08-19T06:57:02.628Z,1460
2018-08-19T06:57:22.828Z,1332
2018-08-19T06:57:43.083Z,1352
2018-08-19T06:58:03.287Z,1328
2018-08-19T06:58:23.540Z,1344
2018-08-19T06:58:43.742Z,1352
2018-08-19T06:59:03.921Z,1332
2018-08-19T06:59:24.191Z,1304
2018-08-19T06:59:44.425Z,1272
2018-08-19T07:00:04.775Z,1180
2018-08-19T07:00:25.065Z,1156
2018-08-19T07:00:45.281Z,1156
2018-08-19T07:01:05.489Z,1164
2018-08-19T07:01:25.820Z,1176
2018-08-19T07:01:45.978Z,1200
2018-08-19T07:02:06.175Z,1236
2018-08-19T07:02:26.354Z,1276
2018-08-19T07:02:46.535Z,1268
2018-08-19T07:03:06.772Z,1244
2018-08-19T07:03:27.048Z,1284
2018-08-19T07:03:47.441Z,1292
2018-08-19T07:04:07.637Z,1264
2018-08-19T07:04:27.729Z,1316
2018-08-19T07:04:47.987Z,1336
2018-08-19T07:05:08.203Z,1364
2018-08-19T07:05:28.410Z,1356
2018-08-19T07:05:48.625Z,1356
2018-08-19T07:06:08.916Z,1368
2018-08-19T07:06:29.115Z,1356
2018-08-19T07:06:49.292Z,1344
2018-08-19T07:07:09.500Z,1240
2018-08-19T07:07:29.669Z,1224
2018-08-19T07:07:49.861Z,1320
2018-08-19T07:08:10.074Z,1320
2018-08-19T07:08:30.291Z,1300
2018-08-19T07:08:50.446Z,1280
2018-08-19T07:09:10.655Z,1260
2018-08-19T07:09:30.829Z,1180
2018-08-19T07:09:51.012Z,1208
2018-08-19T07:10:11.216Z,1264
2018-08-19T07:10:31.446Z,1264
2018-08-19T07:10:51.617Z,1268
2018-08-19T07:11:11.793Z,1244
2018-08-19T07:11:31.934Z,1224
2018-08-19T07:11:52.123Z,1204
2018-08-19T07:12:12.349Z,1148
2018-08-19T07:12:32.524Z,1148
2018-08-19T07:12:52.657Z,1196
2018-08-19T07:13:12.829Z,1196
2018-08-19T07:13:33.085Z,1212
2018-08-19T07:13:53.302Z,1224
2018-08-19T07:14:13.457Z,1228
2018-08-19T07:14:33.704Z,1232
2018-08-19T07:14:53.873Z,1236
2018-08-19T07:15:14.075Z,1240
2018-08-19T07:15:34.306Z,1240
2018-08-19T07:15:54.703Z,1232
2018-08-19T07:16:14.898Z,1236
2018-08-19T07:16:35.981Z,1256
2018-08-19T07:16:56.168Z,1264
2018-08-19T07:17:16.336Z,1272
2018-08-19T07:17:37.142Z,1280
2018-08-19T07:17:57.335Z,1304
2018-08-19T07:18:17.512Z,1316
2018-08-19T07:18:38.817Z,1324
2018-08-19T07:18:58.890Z,1332
2018-08-19T07:19:19.034Z,1340
2018-08-19T07:19:39.252Z,1340
2018-08-19T07:19:59.486Z,1344
2018-08-19T07:20:19.726Z,1336
2018-08-19T07:20:39.937Z,1324
2018-08-19T07:21:00.126Z,1328
2018-08-19T07:21:20.296Z,1344
2018-08-19T07:21:40.619Z,1372
2018-08-19T07:22:00.888Z,1404
2018-08-19T07:22:21.068Z,1416
2018-08-19T07:22:41.417Z,1440
2018-08-19T07:23:01.646Z,1456
2018-08-19T07:23:21.840Z,1452
2018-08-19T07:23:42.036Z,1456
2018-08-19T07:24:02.223Z,1448
2018-08-19T07:24:22.398Z,1444
2018-08-19T07:24:42.630Z,1428
2018-08-19T07:25:02.829Z,1400
2018-08-19T07:25:23.071Z,1376
2018-08-19T07:25:43.234Z,1380
2018-08-19T07:26:03.408Z,1392
2018-08-19T07:26:23.584Z,1388
2018-08-19T07:26:43.782Z,1376
2018-08-19T07:27:04.080Z,1372
2018-08-19T07:27:24.285Z,1372
2018-08-19T07:27:44.471Z,1376
2018-08-19T07:28:04.706Z,1376
2018-08-19T07:28:24.917Z,1380
2018-08-19T07:28:45.076Z,1372
2018-08-19T07:29:05.263Z,1360
2018-08-19T07:29:25.441Z,1332
2018-08-19T07:29:45.728Z,1320
2018-08-19T07:30:05.988Z,1324
2018-08-19T07:30:26.190Z,1320
2018-08-19T07:30:46.415Z,1316
2018-08-19T07:31:06.640Z,1312
2018-08-19T07:31:26.902Z,1320
2018-08-19T07:31:47.102Z,1296
2018-08-19T07:32:07.321Z,1300
2018-08-19T07:32:27.542Z,1244
2018-08-19T07:32:47.744Z,1336
2018-08-19T07:33:08.018Z,1300
2018-08-19T07:33:28.364Z,1312
2018-08-19T07:33:49.487Z,1328
2018-08-19T07:34:10.368Z,1332
2018-08-19T07:34:30.802Z,1324
2018-08-19T07:34:51.019Z,1320
2018-08-19T07:35:11.187Z,1324
2018-08-19T07:35:31.376Z,1324
2018-08-19T07:35:51.550Z,1320
2018-08-19T07:36:11.793Z,1316
2018-08-19T07:36:31.969Z,1308
2018-08-19T07:36:52.265Z,1308
2018-08-19T07:37:12.533Z,1312
2018-08-19T07:37:32.651Z,1308
2018-08-19T07:37:52.810Z,1296
2018-08-19T07:38:13.045Z,1288
2018-08-19T07:38:33.247Z,1280
2018-08-19T07:38:53.480Z,1268
2018-08-19T07:39:13.658Z,1264
2018-08-19T07:39:34.699Z,1264
2018-08-19T07:39:55.104Z,1268
2018-08-19T07:40:15.488Z,1284
2018-08-19T07:40:36.029Z,1284
2018-08-19T07:40:56.590Z,1276
2018-08-19T07:41:16.772Z,1284
2018-08-19T07:41:37.009Z,1276
2018-08-19T07:41:57.207Z,1280
2018-08-19T07:42:17.593Z,1272
2018-08-19T07:42:37.911Z,1268
2018-08-19T07:42:58.459Z,1264
2018-08-19T07:43:18.726Z,1260
2018-08-19T07:43:38.915Z,1252
2018-08-19T07:43:59.249Z,1260
2018-08-19T07:44:19.452Z,1268
2018-08-19T07:44:40.597Z,1272
2018-08-19T07:45:01.068Z,1264
2018-08-19T07:45:21.365Z,1276
2018-08-19T07:45:41.715Z,1280
2018-08-19T07:46:01.944Z,1288
2018-08-19T07:46:22.285Z,1312
2018-08-19T07:46:42.649Z,1332
2018-08-19T07:47:02.976Z,1348
2018-08-19T07:47:23.131Z,1368
2018-08-19T07:47:43.320Z,1380
2018-08-19T07:48:03.507Z,1388
2018-08-19T07:48:23.891Z,1360
2018-08-19T07:48:44.842Z,1396
2018-08-19T07:49:05.027Z,1408
2018-08-19T07:49:25.245Z,1416
2018-08-19T07:49:45.425Z,1416
2018-08-19T07:50:05.584Z,1436
2018-08-19T07:50:25.760Z,1464
2018-08-19T07:50:45.929Z,1520
2018-08-19T07:51:06.091Z,1564
2018-08-19T07:51:26.266Z,1608
2018-08-19T07:51:46.483Z,1524
2018-08-19T07:52:06.615Z,1632
2018-08-19T07:52:26.779Z,1544
2018-08-19T07:52:46.913Z,1592
2018-08-19T07:53:07.051Z,1584
2018-08-19T07:53:27.229Z,1596
2018-08-19T07:53:47.425Z,1620
2018-08-19T07:54:07.597Z,1660
2018-08-19T07:54:27.774Z,1720
2018-08-19T07:54:47.921Z,1792
2018-08-19T07:55:08.052Z,1860
2018-08-19T07:55:28.186Z,1872
2018-08-19T07:55:48.365Z,1860
2018-08-19T07:56:08.545Z,1908
2018-08-19T07:56:28.697Z,1928
2018-08-19T07:56:48.882Z,1932
2018-08-19T07:57:09.062Z,1908
2018-08-19T07:57:29.203Z,1884
2018-08-19T07:57:49.371Z,1876
2018-08-19T07:58:09.550Z,1848
2018-08-19T07:58:30.246Z,1824
2018-08-19T07:58:50.391Z,1804
2018-08-19T07:59:10.515Z,1820
2018-08-19T07:59:30.681Z,1844
2018-08-19T07:59:50.833Z,1852
2018-08-19T08:00:10.985Z,1844
2018-08-19T08:00:31.154Z,1828
2018-08-19T08:00:51.321Z,1816
2018-08-19T08:01:12.738Z,1768
2018-08-19T08:01:32.839Z,1732
2018-08-19T08:01:53.148Z,1692
2018-08-19T08:02:14.420Z,1660
2018-08-19T08:02:34.617Z,1624
2018-08-19T08:02:54.817Z,1612
2018-08-19T08:03:14.997Z,1572
2018-08-19T08:03:35.271Z,1540
2018-08-19T08:03:55.505Z,1536
2018-08-19T08:04:15.742Z,1528
2018-08-19T08:04:36.016Z,1532
2018-08-19T08:04:56.216Z,1544
2018-08-19T08:05:16.462Z,1552
2018-08-19T08:05:36.787Z,1564
2018-08-19T08:05:57.023Z,1572
2018-08-19T08:06:17.187Z,1584
2018-08-19T08:06:37.403Z,1608
2018-08-19T08:06:57.630Z,1632
2018-08-19T08:07:17.843Z,1632
2018-08-19T08:07:38.022Z,1624
2018-08-19T08:07:58.267Z,1612
2018-08-19T08:08:18.448Z,1628
2018-08-19T08:08:38.637Z,1576
2018-08-19T08:08:59.037Z,1532
2018-08-19T08:09:19.256Z,1532
2018-08-19T08:09:39.435Z,1540
2018-08-19T08:09:59.732Z,1460
2018-08-19T08:10:19.901Z,1460
2018-08-19T08:10:40.066Z,1460
2018-08-19T08:11:00.538Z,1452
2018-08-19T08:11:20.596Z,1452
2018-08-19T08:11:40.795Z,1392
2018-08-19T08:12:00.935Z,1396
2018-08-19T08:12:21.082Z,1328
2018-08-19T08:12:41.248Z,1356
2018-08-19T08:13:01.484Z,1224
2018-08-19T08:13:21.680Z,1352
2018-08-19T08:13:41.871Z,1320
2018-08-19T08:14:02.106Z,1356
2018-08-19T08:14:22.265Z,1364
2018-08-19T08:14:42.468Z,1404
2018-08-19T08:15:02.674Z,1416
2018-08-19T08:15:22.852Z,1248
2018-08-19T08:15:43.622Z,1400
2018-08-19T08:16:03.804Z,1328
2018-08-19T08:16:24.030Z,1376
2018-08-19T08:16:44.842Z,1368
2018-08-19T08:17:05.067Z,1372
2018-08-19T08:17:25.291Z,1360
2018-08-19T08:17:45.431Z,1360
2018-08-19T08:18:05.658Z,1368
2018-08-19T08:18:27.316Z,1344
2018-08-19T08:18:47.467Z,1328
2018-08-19T08:19:07.627Z,1332
2018-08-19T08:19:27.916Z,1324
2018-08-19T08:19:48.097Z,1320
2018-08-19T08:20:08.302Z,1312
2018-08-19T08:20:28.468Z,1296
2018-08-19T08:20:48.663Z,1312
2018-08-19T08:21:08.921Z,1308
2018-08-19T08:21:29.978Z,1284
2018-08-19T08:21:50.093Z,1296
2018-08-19T08:22:11.121Z,1296
2018-08-19T08:22:31.361Z,1304
2018-08-19T08:22:51.535Z,1312
2018-08-19T08:23:11.694Z,1324
2018-08-19T08:23:31.937Z,1328
2018-08-19T08:23:52.151Z,1316
2018-08-19T08:24:12.355Z,1308
2018-08-19T08:24:32.845Z,1308
2018-08-19T08:24:53.041Z,1304
2018-08-19T08:25:13.330Z,1296
2018-08-19T08:25:34.234Z,1284
2018-08-19T08:25:54.409Z,1284
2018-08-19T08:26:14.610Z,1284
2018-08-19T08:26:34.847Z,1276
2018-08-19T08:26:55.007Z,1284
2018-08-19T08:27:15.263Z,1288
2018-08-19T08:27:35.643Z,1304
2018-08-19T08:27:55.860Z,1304
2018-08-19T08:28:16.300Z,1300
2018-08-19T08:28:36.537Z,1292
2018-08-19T08:28:56.784Z,1296
2018-08-19T08:29:24.452Z,1296
2018-08-19T08:29:51.958Z,1296
2018-08-19T08:30:14.107Z,1300
2018-08-19T08:30:34.882Z,1300
2018-08-19T08:30:55.878Z,1296
2018-08-19T08:31:16.061Z,1304
2018-08-19T08:31:36.812Z,1304
2018-08-19T08:31:57.028Z,1300
2018-08-19T08:32:17.823Z,1304
2018-08-19T08:32:38.869Z,1308
2018-08-19T08:32:59.076Z,1308
2018-08-19T08:33:19.262Z,1312
2018-08-19T08:33:41.291Z,1312
2018-08-19T08:34:01.527Z,1316
2018-08-19T08:34:21.814Z,1320
2018-08-19T08:34:42.154Z,1320
2018-08-19T08:35:02.432Z,1320
2018-08-19T08:35:23.379Z,1316
2018-08-19T08:35:43.684Z,1316
2018-08-19T08:36:03.936Z,1320
2018-08-19T08:36:24.190Z,1324
2018-08-19T08:36:44.544Z,1328
2018-08-19T08:37:04.783Z,1328
2018-08-19T08:37:24.949Z,1320
2018-08-19T08:37:45.273Z,1320
2018-08-19T08:38:05.551Z,1336
2018-08-19T08:38:25.749Z,1344
2018-08-19T08:38:45.987Z,1340
2018-08-19T08:39:06.293Z,1340
2018-08-19T08:39:26.980Z,1356
2018-08-19T08:39:47.802Z,1352
2018-08-19T08:40:09.561Z,1356
2018-08-19T08:40:29.871Z,1356
2018-08-19T08:40:50.064Z,1356
2018-08-19T08:41:10.318Z,1360
2018-08-19T08:41:30.572Z,1360
2018-08-19T08:41:50.909Z,1356
2018-08-19T08:42:11.134Z,1356
2018-08-19T08:42:31.352Z,1344
2018-08-19T08:42:51.513Z,1336
2018-08-19T08:43:12.388Z,1336
2018-08-19T08:43:33.330Z,1348
2018-08-19T08:43:53.517Z,1356
2018-08-19T08:44:13.675Z,1356
2018-08-19T08:44:33.888Z,1372
2018-08-19T08:44:54.107Z,1376
2018-08-19T08:45:14.289Z,1380
2018-08-19T08:45:34.975Z,1384
2018-08-19T08:45:55.146Z,1380
2018-08-19T08:46:15.394Z,1380
2018-08-19T08:46:36.504Z,1388
2018-08-19T08:46:58.726Z,1392
2018-08-19T08:47:18.939Z,1392
2018-08-19T08:47:41.729Z,1388
2018-08-19T08:48:01.799Z,1388
2018-08-19T08:48:21.979Z,1396
2018-08-19T08:48:42.128Z,1392
2018-08-19T08:49:02.303Z,1392
2018-08-19T08:49:23.147Z,1396
2018-08-19T08:49:43.364Z,1400
2018-08-19T08:50:03.520Z,1400
2018-08-19T08:50:24.264Z,1396
2018-08-19T08:50:44.427Z,1400
2018-08-19T08:51:04.602Z,1408
2018-08-19T08:51:25.241Z,1404
2018-08-19T08:51:45.479Z,1400
2018-08-19T08:52:05.706Z,1404
2018-08-19T08:52:26.030Z,1408
2018-08-19T08:52:46.336Z,1408
2018-08-19T08:53:06.668Z,1412
2018-08-19T08:53:26.839Z,1404
2018-08-19T08:53:47.044Z,1400
2018-08-19T08:54:07.223Z,1388
2018-08-19T08:54:27.393Z,1380
2018-08-19T08:54:48.131Z,1376
2018-08-19T08:55:08.276Z,1384
2018-08-19T08:55:28.467Z,1392
2018-08-19T08:55:48.704Z,1376
2018-08-19T08:56:08.899Z,1372
2018-08-19T08:56:29.163Z,1392
2018-08-19T08:56:49.291Z,1400
2018-08-19T08:57:09.499Z,1396
2018-08-19T08:57:30.299Z,1400
2018-08-19T08:57:50.448Z,1412
2018-08-19T08:58:10.642Z,1412
2018-08-19T08:58:30.903Z,1416
2018-08-19T08:58:51.116Z,1424
2018-08-19T08:59:11.448Z,1424
2018-08-19T08:59:31.732Z,1428
2018-08-19T08:59:51.965Z,1416
2018-08-19T09:00:12.237Z,1424
2018-08-19T09:00:32.483Z,1416
2018-08-19T09:00:52.687Z,1408
2018-08-19T09:01:12.912Z,1416
2018-08-19T09:01:33.091Z,1424
2018-08-19T09:01:53.303Z,1420
2018-08-19T09:02:14.176Z,1428
2018-08-19T09:02:34.405Z,1424
2018-08-19T09:02:57.446Z,1420
2018-08-19T09:03:19.021Z,1416
2018-08-19T09:03:39.448Z,1420
2018-08-19T09:04:00.545Z,1420
2018-08-19T09:04:21.416Z,1420
2018-08-19T09:04:42.337Z,1412
2018-08-19T09:05:02.564Z,1412
2018-08-19T09:05:23.428Z,1412
2018-08-19T09:05:43.759Z,1408
2018-08-19T09:06:04.092Z,1412
2018-08-19T09:06:24.284Z,1416
2018-08-19T09:06:44.421Z,1412
2018-08-19T09:07:04.621Z,1412
2018-08-19T09:07:24.824Z,1420
2018-08-19T09:07:45.069Z,1428
2018-08-19T09:08:07.075Z,1424
2018-08-19T09:08:27.234Z,1428
2018-08-19T09:08:47.432Z,1428
2018-08-19T09:09:07.665Z,1432
2018-08-19T09:09:27.837Z,1428
2018-08-19T09:09:48.015Z,1432
2018-08-19T09:10:08.171Z,1436
2018-08-19T09:10:28.381Z,1436
2018-08-19T09:10:48.662Z,1432
2018-08-19T09:11:08.914Z,1468
2018-08-19T09:11:29.219Z,1436
2018-08-19T09:11:49.495Z,1432
2018-08-19T09:12:09.751Z,1436
2018-08-19T09:12:29.921Z,1440
2018-08-19T09:12:51.120Z,1436
2018-08-19T09:13:11.453Z,1428
2018-08-19T09:13:31.789Z,1424
2018-08-19T09:13:52.068Z,1428
2018-08-19T09:14:12.238Z,1424
2018-08-19T09:14:32.394Z,1424
2018-08-19T09:14:52.559Z,1416
2018-08-19T09:15:12.738Z,1424
2018-08-19T09:15:32.913Z,1428
2018-08-19T09:15:53.121Z,1432
2018-08-19T09:16:13.274Z,1424
2018-08-19T09:16:33.446Z,1424
2018-08-19T09:16:53.658Z,1432
2018-08-19T09:17:13.846Z,1432
2018-08-19T09:17:33.975Z,1428
2018-08-19T09:17:54.321Z,1432
2018-08-19T09:18:14.643Z,1444
2018-08-19T09:18:34.816Z,1440
2018-08-19T09:18:54.991Z,1428
2018-08-19T09:19:16.022Z,1432
2018-08-19T09:19:36.260Z,1432
2018-08-19T09:19:56.454Z,1424
2018-08-19T09:20:16.607Z,1424
2018-08-19T09:20:36.785Z,1428
2018-08-19T09:20:59.027Z,1428
2018-08-19T09:21:19.290Z,1420
2018-08-19T09:21:40.146Z,1428
2018-08-19T09:22:00.437Z,1428
2018-08-19T09:22:20.684Z,1432
2018-08-19T09:22:40.843Z,1420
2018-08-19T09:23:01.797Z,1424
2018-08-19T09:23:22.140Z,1424
2018-08-19T09:23:42.252Z,1412
2018-08-19T09:24:04.918Z,1420
2018-08-19T09:24:25.125Z,1416
2018-08-19T09:24:45.280Z,1420
2018-08-19T09:25:05.528Z,1424
2018-08-19T09:25:25.804Z,1420
2018-08-19T09:25:46.043Z,1416
2018-08-19T09:26:06.281Z,1420
2018-08-19T09:26:27.306Z,1416
2018-08-19T09:26:47.571Z,1416
2018-08-19T09:27:07.926Z,1420
2018-08-19T09:27:28.230Z,1412
2018-08-19T09:27:48.609Z,1412
2018-08-19T09:28:08.860Z,1424
2018-08-19T09:28:30.555Z,1416
2018-08-19T09:28:51.080Z,1424
2018-08-19T09:29:11.512Z,1420
2018-08-19T09:29:31.984Z,1428
2018-08-19T09:29:52.326Z,1428
2018-08-19T09:30:12.854Z,1436
2018-08-19T09:30:33.689Z,1440
2018-08-19T09:30:54.265Z,1444
2018-08-19T09:31:15.528Z,1448
2018-08-19T09:31:35.817Z,1448
2018-08-19T09:31:56.178Z,1452
2018-08-19T09:32:16.534Z,1452
2018-08-19T09:32:36.889Z,1452
2018-08-19T09:32:57.486Z,1456
2018-08-19T09:33:18.050Z,1460
2018-08-19T09:33:39.127Z,1448
2018-08-19T09:33:59.480Z,1456
2018-08-19T09:34:19.672Z,1436
2018-08-19T09:34:39.885Z,1444
2018-08-19T09:35:00.134Z,1440
2018-08-19T09:35:20.323Z,1448
2018-08-19T09:35:40.543Z,1448
2018-08-19T09:36:00.733Z,1440
2018-08-19T09:36:20.920Z,1444
2018-08-19T09:36:42.155Z,1444
2018-08-19T09:37:02.612Z,1444
2018-08-19T09:37:22.948Z,1440
2018-08-19T09:37:43.298Z,1440
2018-08-19T09:38:03.505Z,1440
2018-08-19T09:38:24.544Z,1436
2018-08-19T09:38:44.737Z,1436
2018-08-19T09:39:04.924Z,1440
2018-08-19T09:39:25.157Z,1440
2018-08-19T09:39:45.979Z,1436
2018-08-19T09:40:08.721Z,1448
2018-08-19T09:40:49.704Z,1444
2018-08-19T09:41:12.719Z,1444
2018-08-19T09:41:41.531Z,1448
2018-08-19T09:42:07.042Z,1444
2018-08-19T09:42:29.840Z,1448
2018-08-19T09:42:51.221Z,1452
2018-08-19T09:43:14.680Z,1452
2018-08-19T09:43:35.349Z,1448
2018-08-19T09:43:56.124Z,1456
2018-08-19T09:44:16.748Z,1448
2018-08-19T09:44:37.201Z,1464
2018-08-19T09:44:57.672Z,1456
2018-08-19T09:45:18.432Z,1452
2018-08-19T09:45:41.448Z,1452
2018-08-19T09:46:01.656Z,1460
2018-08-19T09:46:21.901Z,1456
2018-08-19T09:46:42.025Z,1456
2018-08-19T09:47:02.211Z,1456
2018-08-19T09:47:22.875Z,1456
2018-08-19T09:47:43.463Z,1456
2018-08-19T09:48:04.187Z,1464
2018-08-19T09:48:24.471Z,1468
2018-08-19T09:48:45.919Z,1468
2018-08-19T09:49:06.123Z,1464
2018-08-19T09:49:26.338Z,1464
2018-08-19T09:49:46.563Z,1456
2018-08-19T09:50:06.772Z,1460
2018-08-19T09:50:26.971Z,1444
2018-08-19T09:50:47.189Z,1460
2018-08-19T09:51:08.840Z,1452
2018-08-19T09:51:28.988Z,1448
2018-08-19T09:51:49.959Z,1472
2018-08-19T09:52:10.153Z,1464
2018-08-19T09:52:30.361Z,1464
2018-08-19T09:52:50.554Z,1468
2018-08-19T09:53:10.787Z,1472
2018-08-19T09:53:30.956Z,1472
2018-08-19T09:53:51.139Z,1468
2018-08-19T09:54:11.294Z,1464
2018-08-19T09:54:31.639Z,1472
2018-08-19T09:54:51.818Z,1476
2018-08-19T09:55:12.070Z,1472
2018-08-19T09:55:32.242Z,1468
2018-08-19T09:55:52.465Z,1480
2018-08-19T09:56:12.682Z,1480
2018-08-19T09:56:33.035Z,1496
2018-08-19T09:56:53.342Z,1488
2018-08-19T09:57:13.613Z,1488
2018-08-19T09:57:33.818Z,1480
2018-08-19T09:57:54.024Z,1480
2018-08-19T09:58:14.346Z,1480
2018-08-19T09:58:37.168Z,1492
2018-08-19T09:58:57.354Z,1484
2018-08-19T09:59:17.576Z,1476
2018-08-19T09:59:37.869Z,1500
2018-08-19T09:59:58.008Z,1488
2018-08-19T10:00:18.201Z,1484
2018-08-19T10:00:38.435Z,1484
2018-08-19T10:00:58.647Z,1488
2018-08-19T10:01:19.753Z,1488
2018-08-19T10:01:40.103Z,1492
2018-08-19T10:02:00.319Z,1488
2018-08-19T10:02:20.593Z,1492
2018-08-19T10:02:40.825Z,1492
2018-08-19T10:03:01.080Z,1496
2018-08-19T10:03:21.377Z,1500
2018-08-19T10:03:42.365Z,1500
2018-08-19T10:04:02.585Z,1496
2018-08-19T10:04:22.891Z,1496
2018-08-19T10:04:43.298Z,1504
2018-08-19T10:05:03.703Z,1504
2018-08-19T10:05:24.049Z,1504
2018-08-19T10:05:44.446Z,1516
2018-08-19T10:06:04.676Z,1512
2018-08-19T10:06:24.872Z,1512
2018-08-19T10:06:45.153Z,1512
2018-08-19T10:07:05.386Z,1524
2018-08-19T10:07:25.690Z,1520
2018-08-19T10:07:45.988Z,1516
2018-08-19T10:08:06.546Z,1516
2018-08-19T10:08:26.836Z,1524
2018-08-19T10:08:47.094Z,1524
2018-08-19T10:09:07.350Z,1524
2018-08-19T10:09:27.554Z,1524
2018-08-19T10:09:48.672Z,1520
2018-08-19T10:10:08.789Z,1528
2018-08-19T10:10:28.948Z,1524
2018-08-19T10:10:51.773Z,1524
2018-08-19T10:11:11.945Z,1532
2018-08-19T10:11:32.213Z,1528
2018-08-19T10:11:52.417Z,1524
2018-08-19T10:12:12.653Z,1536
2018-08-19T10:12:32.951Z,1528
2018-08-19T10:12:53.402Z,1524
2018-08-19T10:13:13.732Z,1520
2018-08-19T10:13:33.951Z,1520
2018-08-19T10:13:55.092Z,1520
2018-08-19T10:14:15.324Z,1524
2018-08-19T10:14:35.519Z,1524
2018-08-19T10:14:55.675Z,1520
2018-08-19T10:15:16.622Z,1516
2018-08-19T10:15:36.835Z,1552
2018-08-19T10:15:57.070Z,1524
2018-08-19T10:16:17.304Z,1512
2018-08-19T10:16:37.456Z,1516
2018-08-19T10:16:57.604Z,1504
2018-08-19T10:17:17.781Z,1512
2018-08-19T10:17:38.573Z,1500
2018-08-19T10:17:58.769Z,1516
2018-08-19T10:18:18.955Z,1532
2018-08-19T10:18:39.160Z,1532
2018-08-19T10:18:59.351Z,1524
2018-08-19T10:19:20.545Z,1524
2018-08-19T10:19:40.750Z,1524
2018-08-19T10:20:00.925Z,1524
2018-08-19T10:20:21.117Z,1524
2018-08-19T10:20:43.248Z,1528